Time;durP1;ratioP1;P1;durP2;ratioP2;P2;SDS_P1;SDS_P2;PMS_P1;PMS_P2;Temp;Humidity;BMP_temperature;BMP_pressure;BME280_temperature;BME280_humidity;BME280_pressure;Samples;Min_cycle;Max_cycle;Signal;HPM_P1;HPM_P2
2024/02/02 00:01:33;;;;;;;11.30;5.65;;;;;;;;;;4968795;28;20060;-83
2024/02/02 00:04:18;;;;;;;9.40;5.50;;;;;;;;;;4974711;28;20497;-83
2024/02/02 00:07:03;;;;;;;10.23;5.47;;;;;;;;;;4965952;28;20147;-84
2024/02/02 00:09:49;;;;;;;10.80;6.20;;;;;;;;;;4969789;28;20116;-85
2024/02/02 00:12:35;;;;;;;12.13;6.82;;;;;;;;;;4966453;28;20548;-86
2024/02/02 00:15:20;;;;;;;9.57;5.85;;;;;;;;;;4961469;28;20113;-85
2024/02/02 00:18:06;;;;;;;9.38;5.53;;;;;;;;;;4961627;28;20853;-85
2024/02/02 00:20:53;;;;;;;9.00;5.25;;;;;;;;;;4975749;28;20035;-85
2024/02/02 00:23:38;;;;;;;12.35;6.90;;;;;;;;;;4973752;28;20026;-85
2024/02/02 00:26:25;;;;;;;10.35;5.97;;;;;;;;;;4975844;28;20062;-85
2024/02/02 00:29:11;;;;;;;12.20;5.47;;;;;;;;;;4978526;28;20034;-84
2024/02/02 00:31:57;;;;;;;11.30;5.05;;;;;;;;;;4973321;28;20058;-83
2024/02/02 00:34:42;;;;;;;8.40;4.63;;;;;;;;;;4963850;28;20026;-83
2024/02/02 00:37:27;;;;;;;9.50;5.25;;;;;;;;;;4970185;28;20418;-83
2024/02/02 00:40:12;;;;;;;8.52;4.50;;;;;;;;;;4968571;28;20043;-84
2024/02/02 00:42:57;;;;;;;8.88;5.00;;;;;;;;;;4969120;28;20105;-83
2024/02/02 00:45:43;;;;;;;12.57;5.28;;;;;;;;;;4974101;28;20022;-83
2024/02/02 00:48:28;;;;;;;10.73;5.13;;;;;;;;;;4967923;28;20027;-83
2024/02/02 00:51:13;;;;;;;7.68;5.13;;;;;;;;;;4966408;28;20043;-85
2024/02/02 00:53:58;;;;;;;10.73;5.68;;;;;;;;;;4964507;28;20073;-83
2024/02/02 00:56:44;;;;;;;13.23;5.60;;;;;;;;;;4966751;28;20113;-85
2024/02/02 00:59:29;;;;;;;12.30;6.20;;;;;;;;;;4964870;28;20030;-85
2024/02/02 01:02:14;;;;;;;13.48;5.78;;;;;;;;;;4958707;28;20038;-85
2024/02/02 01:04:59;;;;;;;8.30;4.50;;;;;;;;;;4971026;28;20109;-85
2024/02/02 01:07:45;;;;;;;8.27;4.90;;;;;;;;;;4965062;28;20027;-83
2024/02/02 01:10:30;;;;;;;7.50;4.72;;;;;;;;;;4967690;28;20022;-84
2024/02/02 01:13:16;;;;;;;9.38;4.50;;;;;;;;;;4973767;28;20033;-84
2024/02/02 01:16:01;;;;;;;9.20;4.82;;;;;;;;;;4968564;28;20033;-84
2024/02/02 01:18:46;;;;;;;7.90;4.70;;;;;;;;;;4970678;28;20114;-84
2024/02/02 01:21:33;;;;;;;8.27;4.45;;;;;;;;;;4961753;28;20029;-83
2024/02/02 01:24:18;;;;;;;8.00;4.65;;;;;;;;;;4964722;28;20050;-83
2024/02/02 01:27:06;;;;;;;8.93;4.10;;;;;;;;;;4961362;28;20039;-84
2024/02/02 01:29:52;;;;;;;9.85;4.70;;;;;;;;;;4969308;28;20035;-84
2024/02/02 01:32:38;;;;;;;10.57;4.72;;;;;;;;;;4958726;28;20135;-83
2024/02/02 01:35:23;;;;;;;8.07;4.75;;;;;;;;;;4957133;28;20109;-84
2024/02/02 01:38:10;;;;;;;9.38;4.90;;;;;;;;;;4966544;28;20126;-83
2024/02/02 01:40:55;;;;;;;9.13;4.30;;;;;;;;;;4967149;28;20027;-82
2024/02/02 01:43:40;;;;;;;10.00;4.00;;;;;;;;;;4966317;28;20135;-83
2024/02/02 01:46:25;;;;;;;8.80;4.35;;;;;;;;;;4966849;28;20058;-84
2024/02/02 01:49:11;;;;;;;8.73;4.45;;;;;;;;;;4964193;28;20031;-82
2024/02/02 01:51:56;;;;;;;6.95;4.45;;;;;;;;;;4979367;28;20022;-83
2024/02/02 01:54:41;;;;;;;12.02;4.85;;;;;;;;;;4994090;28;20050;-85
2024/02/02 01:57:27;;;;;;;7.57;4.05;;;;;;;;;;4996107;28;20054;-83
2024/02/02 02:00:13;;;;;;;7.30;3.78;;;;;;;;;;4992807;28;20023;-83
2024/02/02 02:02:58;;;;;;;7.32;3.90;;;;;;;;;;4989370;28;20034;-84
2024/02/02 02:05:44;;;;;;;8.82;3.60;;;;;;;;;;4968348;28;20466;-84
2024/02/02 02:08:29;;;;;;;7.75;4.20;;;;;;;;;;4960309;28;20037;-84
2024/02/02 02:11:14;;;;;;;8.85;4.47;;;;;;;;;;4979607;28;20022;-85
2024/02/02 02:14:00;;;;;;;9.52;3.80;;;;;;;;;;4968627;28;20057;-84
2024/02/02 02:16:45;;;;;;;12.10;4.72;;;;;;;;;;4967118;28;20043;-84
2024/02/02 02:19:32;;;;;;;8.57;3.78;;;;;;;;;;4948586;28;20051;-84
2024/02/02 02:22:17;;;;;;;6.82;3.75;;;;;;;;;;4949438;28;20039;-84
2024/02/02 02:25:03;;;;;;;7.88;3.58;;;;;;;;;;4933795;28;20065;-83
2024/02/02 02:27:48;;;;;;;8.65;4.82;;;;;;;;;;4940728;28;20122;-84
2024/02/02 02:30:33;;;;;;;8.23;3.63;;;;;;;;;;4942770;28;20031;-84
2024/02/02 02:33:19;;;;;;;8.05;4.45;;;;;;;;;;4945361;28;20022;-83
2024/02/02 02:36:04;;;;;;;9.77;4.35;;;;;;;;;;4945424;28;20026;-83
2024/02/02 02:38:50;;;;;;;8.40;3.53;;;;;;;;;;4941716;28;20062;-84
2024/02/02 02:41:35;;;;;;;6.10;3.53;;;;;;;;;;4944448;28;20026;-83
2024/02/02 02:44:21;;;;;;;8.05;3.92;;;;;;;;;;4940807;28;20031;-84
2024/02/02 02:47:06;;;;;;;5.53;3.28;;;;;;;;;;4936106;28;20023;-83
2024/02/02 02:49:51;;;;;;;12.52;3.85;;;;;;;;;;4939173;28;20074;-85
2024/02/02 02:52:36;;;;;;;6.47;3.90;;;;;;;;;;4946467;28;20120;-84
2024/02/02 02:55:22;;;;;;;9.52;3.85;;;;;;;;;;4941856;28;20076;-83
2024/02/02 02:58:07;;;;;;;8.10;3.72;;;;;;;;;;4950378;28;20030;-85
2024/02/02 03:00:53;;;;;;;7.13;3.45;;;;;;;;;;4948005;28;20066;-84
2024/02/02 03:03:38;;;;;;;7.38;3.30;;;;;;;;;;4930782;28;20031;-84
2024/02/02 03:06:23;;;;;;;7.22;3.70;;;;;;;;;;4948043;28;20049;-84
2024/02/02 03:09:11;;;;;;;9.18;4.10;;;;;;;;;;4942755;28;20037;-84
2024/02/02 03:11:56;;;;;;;8.32;3.72;;;;;;;;;;4938570;28;20073;-85
2024/02/02 03:14:42;;;;;;;5.90;2.72;;;;;;;;;;4943988;28;20085;-84
2024/02/02 03:17:27;;;;;;;8.43;3.50;;;;;;;;;;4947444;28;20249;-85
2024/02/02 03:20:12;;;;;;;11.80;3.53;;;;;;;;;;4961617;28;20113;-84
2024/02/02 03:22:57;;;;;;;6.63;3.33;;;;;;;;;;4973839;28;20381;-85
2024/02/02 03:25:43;;;;;;;7.68;3.17;;;;;;;;;;4970751;28;20466;-84
2024/02/02 03:28:28;;;;;;;5.35;3.50;;;;;;;;;;4975592;28;20734;-83
2024/02/02 03:31:13;;;;;;;8.23;4.10;;;;;;;;;;4965504;28;20062;-84
2024/02/02 03:33:58;;;;;;;10.30;5.03;;;;;;;;;;4971309;28;20477;-84
2024/02/02 03:36:44;;;;;;;8.52;2.90;;;;;;;;;;4976524;28;20030;-84
2024/02/02 03:39:29;;;;;;;7.85;3.38;;;;;;;;;;4973175;28;20030;-82
2024/02/02 03:42:14;;;;;;;6.13;3.17;;;;;;;;;;4980768;28;20030;-83
2024/02/02 03:44:59;;;;;;;8.10;3.30;;;;;;;;;;4974907;28;20034;-83
2024/02/02 03:47:45;;;;;;;8.05;3.28;;;;;;;;;;4966897;28;20030;-89
2024/02/02 03:50:30;;;;;;;11.48;4.82;;;;;;;;;;4975844;28;20031;-83
2024/02/02 03:53:15;;;;;;;5.13;2.95;;;;;;;;;;4968470;28;20039;-84
2024/02/02 03:56:00;;;;;;;7.85;3.08;;;;;;;;;;4962948;28;20631;-84
2024/02/02 03:58:46;;;;;;;10.18;3.10;;;;;;;;;;4972513;28;20034;-84
2024/02/02 04:01:31;;;;;;;8.88;3.50;;;;;;;;;;4965876;28;20022;-82
2024/02/02 04:04:19;;;;;;;7.07;3.25;;;;;;;;;;4966337;28;20025;-83
2024/02/02 04:07:04;;;;;;;6.72;3.55;;;;;;;;;;4961293;28;20470;-83
2024/02/02 04:09:49;;;;;;;7.38;3.17;;;;;;;;;;4963798;28;20077;-82
2024/02/02 04:12:35;;;;;;;8.43;3.65;;;;;;;;;;4971649;28;20034;-84
2024/02/02 04:15:20;;;;;;;8.98;3.15;;;;;;;;;;4968124;28;20043;-82
2024/02/02 04:18:05;;;;;;;5.43;2.92;;;;;;;;;;4970405;28;20042;-84
2024/02/02 04:20:53;;;;;;;7.32;3.40;;;;;;;;;;4970022;28;20030;-83
2024/02/02 04:23:38;;;;;;;6.95;3.67;;;;;;;;;;4959390;28;20022;-83
2024/02/02 04:26:23;;;;;;;7.05;3.22;;;;;;;;;;4968913;28;20145;-85
2024/02/02 04:29:08;;;;;;;9.18;3.47;;;;;;;;;;4960034;28;20117;-83
2024/02/02 04:31:54;;;;;;;5.35;3.10;;;;;;;;;;4963536;28;20018;-85
2024/02/02 04:34:39;;;;;;;8.98;3.78;;;;;;;;;;4962487;28;20031;-84
2024/02/02 04:37:24;;;;;;;6.25;3.47;;;;;;;;;;4954756;28;20057;-84
2024/02/02 04:40:10;;;;;;;7.20;3.38;;;;;;;;;;4962870;28;20125;-86
2024/02/02 04:42:55;;;;;;;7.05;3.58;;;;;;;;;;4961882;28;20037;-84
2024/02/02 04:45:43;;;;;;;9.55;3.55;;;;;;;;;;4983168;28;20031;-84
2024/02/02 04:48:28;;;;;;;7.80;3.60;;;;;;;;;;4967480;28;20122;-83
2024/02/02 04:51:13;;;;;;;6.32;3.20;;;;;;;;;;4966472;28;20018;-83
2024/02/02 04:53:59;;;;;;;8.45;3.47;;;;;;;;;;4969695;28;20030;-84
2024/02/02 04:56:44;;;;;;;8.20;2.92;;;;;;;;;;4971492;28;20088;-84
2024/02/02 04:59:29;;;;;;;7.93;3.30;;;;;;;;;;4963576;28;20062;-82
2024/02/02 05:02:18;;;;;;;8.63;3.60;;;;;;;;;;4967414;28;20027;-84
2024/02/02 05:05:05;;;;;;;6.35;3.00;;;;;;;;;;4972739;28;20120;-86
2024/02/02 05:07:50;;;;;;;11.70;3.53;;;;;;;;;;4967332;28;20043;-88
2024/02/02 05:10:35;;;;;;;8.35;3.35;;;;;;;;;;4960556;28;20109;-86
2024/02/02 05:13:21;;;;;;;8.40;3.35;;;;;;;;;;4959715;28;20046;-88
2024/02/02 05:16:07;;;;;;;7.55;3.00;;;;;;;;;;4948726;28;20541;-88
2024/02/02 05:18:52;;;;;;;10.68;3.30;;;;;;;;;;4962555;28;20058;-87
2024/02/02 05:21:37;;;;;;;6.60;3.30;;;;;;;;;;4969636;28;20073;-87
2024/02/02 05:24:22;;;;;;;7.13;3.10;;;;;;;;;;4962962;28;20085;-85
2024/02/02 05:27:08;;;;;;;7.82;4.07;;;;;;;;;;4964513;28;20062;-86
2024/02/02 05:29:53;;;;;;;11.80;3.72;;;;;;;;;;4976189;28;20049;-87
2024/02/02 05:32:38;;;;;;;6.55;3.42;;;;;;;;;;4961120;28;20126;-88
2024/02/02 05:35:24;;;;;;;7.32;3.47;;;;;;;;;;4970390;28;20045;-87
2024/02/02 05:38:09;;;;;;;12.20;4.03;;;;;;;;;;4974619;28;20058;-90
2024/02/02 05:40:54;;;;;;;7.25;3.25;;;;;;;;;;4947365;28;20031;-89
2024/02/02 05:43:40;;;;;;;6.70;3.47;;;;;;;;;;4979809;28;20021;-87
2024/02/02 05:46:25;;;;;;;8.45;3.97;;;;;;;;;;4982473;28;20053;-89
2024/02/02 05:49:10;;;;;;;8.40;3.97;;;;;;;;;;4962120;28;20051;-88
2024/02/02 05:51:55;;;;;;;10.65;3.72;;;;;;;;;;4959857;28;20086;-89
2024/02/02 05:54:40;;;;;;;6.75;3.90;;;;;;;;;;4953402;28;20059;-89
2024/02/02 05:57:26;;;;;;;7.13;3.65;;;;;;;;;;4968343;28;20027;-87
2024/02/02 06:00:11;;;;;;;10.07;3.72;;;;;;;;;;4968380;28;20597;-89
2024/02/02 06:02:56;;;;;;;8.80;3.88;;;;;;;;;;4978899;28;20037;-86
2024/02/02 06:05:44;;;;;;;10.52;4.15;;;;;;;;;;4980513;28;20022;-83
2024/02/02 06:08:30;;;;;;;11.57;4.53;;;;;;;;;;4964172;28;20035;-83
2024/02/02 06:11:15;;;;;;;9.60;4.90;;;;;;;;;;4968207;28;20106;-84
2024/02/02 06:14:00;;;;;;;9.75;4.35;;;;;;;;;;4963680;28;20035;-83
2024/02/02 06:16:47;;;;;;;9.82;4.10;;;;;;;;;;4961369;28;20049;-84
2024/02/02 06:19:33;;;;;;;10.70;3.95;;;;;;;;;;4973587;28;20030;-87
2024/02/02 06:22:21;;;;;;;5.63;3.33;;;;;;;;;;4980655;28;20555;-85
2024/02/02 06:25:06;;;;;;;7.43;3.42;;;;;;;;;;4970816;28;20018;-85
2024/02/02 06:27:51;;;;;;;7.05;4.28;;;;;;;;;;4973592;28;20217;-85
2024/02/02 06:30:37;;;;;;;11.07;5.68;;;;;;;;;;4967089;28;20066;-84
2024/02/02 06:33:22;;;;;;;8.05;4.40;;;;;;;;;;4963746;28;20073;-83
2024/02/02 06:36:07;;;;;;;9.18;4.65;;;;;;;;;;4967885;28;20073;-84
2024/02/02 06:38:56;;;;;;;9.57;4.43;;;;;;;;;;4968517;28;20026;-84
2024/02/02 06:41:42;;;;;;;7.85;4.20;;;;;;;;;;4970213;28;20031;-84
2024/02/02 06:44:27;;;;;;;8.07;3.83;;;;;;;;;;4962140;28;20970;-83
2024/02/02 06:47:13;;;;;;;9.55;4.70;;;;;;;;;;4968526;28;20050;-83
2024/02/02 06:49:58;;;;;;;13.93;5.03;;;;;;;;;;4967691;28;20035;-83
2024/02/02 06:52:43;;;;;;;7.68;4.10;;;;;;;;;;4976397;28;20077;-93
2024/02/02 06:55:29;;;;;;;9.10;4.53;;;;;;;;;;4959778;28;20037;-85
2024/02/02 06:58:26;;;;;;;13.85;5.50;;;;;;;;;;4970131;28;20030;-86
2024/02/02 07:01:11;;;;;;;10.23;4.15;;;;;;;;;;4959410;28;20026;-86
2024/02/02 07:03:56;;;;;;;9.65;3.65;;;;;;;;;;4964788;28;20453;-85
2024/02/02 07:06:42;;;;;;;13.23;5.32;;;;;;;;;;4969706;28;20033;-86
2024/02/02 07:09:31;;;;;;;11.85;5.18;;;;;;;;;;4970440;28;20049;-84
2024/02/02 07:12:32;;;;;;;10.02;5.25;;;;;;;;;;4970183;28;20027;-86
2024/02/02 07:15:18;;;;;;;12.60;5.05;;;;;;;;;;4966846;28;20488;-84
2024/02/02 07:18:03;;;;;;;10.73;5.88;;;;;;;;;;4972570;28;20520;-84
2024/02/02 07:20:58;;;;;;;13.15;4.80;;;;;;;;;;4967816;28;20113;-88
2024/02/02 07:23:44;;;;;;;9.70;5.13;;;;;;;;;;4970625;28;20467;-87
2024/02/02 07:26:30;;;;;;;13.40;5.43;;;;;;;;;;4980602;28;20116;-91
2024/02/02 07:29:29;;;;;;;10.48;5.65;;;;;;;;;;4967008;28;20029;-88
2024/02/02 07:32:16;;;;;;;12.15;5.63;;;;;;;;;;4977177;28;20374;-85
2024/02/02 07:35:02;;;;;;;11.52;5.82;;;;;;;;;;4971035;28;20030;-86
2024/02/02 07:37:47;;;;;;;11.82;6.53;;;;;;;;;;4967194;28;20028;-88
2024/02/02 07:40:53;;;;;;;9.63;4.57;;;;;;;;;;4962746;28;20019;-84
2024/02/02 07:43:39;;;;;;;14.85;5.22;;;;;;;;;;4966592;28;20116;-85
2024/02/02 07:46:24;;;;;;;10.27;5.40;;;;;;;;;;4955417;28;20027;-85
2024/02/02 07:49:09;;;;;;;12.30;6.05;;;;;;;;;;4967565;28;20038;-85
2024/02/02 07:51:58;;;;;;;11.75;5.57;;;;;;;;;;4964550;28;20049;-83
2024/02/02 07:54:43;;;;;;;14.90;6.00;;;;;;;;;;4972729;28;20485;-81
2024/02/02 07:57:28;;;;;;;13.35;6.45;;;;;;;;;;4970696;28;20034;-82
2024/02/02 08:00:14;;;;;;;11.02;5.55;;;;;;;;;;4963812;28;20033;-83
2024/02/02 08:02:59;;;;;;;10.55;5.68;;;;;;;;;;4966274;28;20030;-84
2024/02/02 08:05:45;;;;;;;11.90;5.50;;;;;;;;;;4964784;28;20041;-84
2024/02/02 08:08:31;;;;;;;11.98;6.55;;;;;;;;;;4959379;28;20030;-83
2024/02/02 08:11:16;;;;;;;14.10;7.00;;;;;;;;;;4935790;28;20039;-83
2024/02/02 08:14:01;;;;;;;15.00;7.13;;;;;;;;;;4960470;28;20030;-81
2024/02/02 08:16:46;;;;;;;11.25;6.35;;;;;;;;;;4967788;28;20047;-82
2024/02/02 08:19:32;;;;;;;15.02;7.30;;;;;;;;;;4950971;28;20027;-81
2024/02/02 08:22:17;;;;;;;12.70;6.45;;;;;;;;;;4953709;28;20025;-84
2024/02/02 08:25:02;;;;;;;12.40;5.97;;;;;;;;;;4946311;28;20158;-84
2024/02/02 08:27:48;;;;;;;10.38;6.10;;;;;;;;;;4954065;28;20039;-83
2024/02/02 08:30:34;;;;;;;11.13;5.78;;;;;;;;;;4950842;28;20027;-84
2024/02/02 08:33:19;;;;;;;15.05;5.85;;;;;;;;;;4951739;28;20031;-84
2024/02/02 08:36:04;;;;;;;12.55;6.85;;;;;;;;;;4946735;28;20492;-84
2024/02/02 08:38:50;;;;;;;10.68;5.80;;;;;;;;;;4949547;28;20031;-85
2024/02/02 08:41:35;;;;;;;14.02;6.00;;;;;;;;;;4946865;28;20034;-87
2024/02/02 08:44:23;;;;;;;9.93;5.88;;;;;;;;;;4940272;28;20031;-85
2024/02/02 08:47:34;;;;;;;13.32;6.50;;;;;;;;;;4950572;28;20595;-89
2024/02/02 08:50:19;;;;;;;10.43;5.78;;;;;;;;;;4951213;28;20030;-84
2024/02/02 08:53:06;;;;;;;12.32;5.88;;;;;;;;;;4951661;28;20087;-85
2024/02/02 08:55:54;;;;;;;14.70;7.22;;;;;;;;;;4948516;28;20034;-84
2024/02/02 08:58:41;;;;;;;11.27;6.20;;;;;;;;;;4944821;28;20042;-84
2024/02/02 09:01:41;;;;;;;13.95;6.43;;;;;;;;;;4947012;28;20030;-87
2024/02/02 09:04:47;;;;;;;12.02;6.70;;;;;;;;;;4948646;28;20501;-87
2024/02/02 09:07:32;;;;;;;12.18;5.95;;;;;;;;;;4950817;28;20066;-89
2024/02/02 09:13:16;;;;;;;10.87;7.07;;;;;;;;;;5727656;23;20055;-89
2024/02/02 09:16:02;;;;;;;11.90;6.75;;;;;;;;;;4982544;28;20309;-90
2024/02/02 09:22:40;;;;;;;10.10;6.28;;;;;;;;;;4881429;29;20036;-90
2024/02/02 09:40:12;;;;;;;10.68;6.45;;;;;;;;;;4761422;29;20039;-88
2024/02/02 09:56:53;;;;;;;12.43;6.22;;;;;;;;;;4817703;29;20029;-86
2024/02/02 10:00:01;;;;;;;9.05;5.43;;;;;;;;;;4964434;28;20057;-85
2024/02/02 10:03:13;;;;;;;8.65;5.13;;;;;;;;;;4978024;28;20026;-85
2024/02/02 10:06:17;;;;;;;9.13;5.22;;;;;;;;;;4981226;28;20030;-87
2024/02/02 10:09:09;;;;;;;6.88;4.32;;;;;;;;;;4971542;28;20069;-87
2024/02/02 10:12:13;;;;;;;7.38;4.57;;;;;;;;;;5001409;28;20084;-87
2024/02/02 10:15:15;;;;;;;8.63;4.65;;;;;;;;;;5013495;28;20049;-87
2024/02/02 10:18:07;;;;;;;8.82;4.80;;;;;;;;;;5007577;28;20026;-87
2024/02/02 10:21:25;;;;;;;9.60;4.63;;;;;;;;;;5011835;28;20033;-86
2024/02/02 10:24:21;;;;;;;8.93;4.93;;;;;;;;;;5005631;28;20037;-85
2024/02/02 10:27:19;;;;;;;6.57;4.00;;;;;;;;;;4989220;28;20124;-87
2024/02/02 10:30:13;;;;;;;7.75;4.28;;;;;;;;;;4990834;28;20068;-86
2024/02/02 10:33:08;;;;;;;6.15;3.67;;;;;;;;;;4987503;28;20035;-84
2024/02/02 10:36:06;;;;;;;6.72;3.45;;;;;;;;;;4990044;28;20042;-88
2024/02/02 10:39:02;;;;;;;7.25;3.88;;;;;;;;;;4991552;28;20021;-83
2024/02/02 10:42:07;;;;;;;6.68;4.30;;;;;;;;;;4974887;28;20030;-87
2024/02/02 10:45:01;;;;;;;7.78;3.20;;;;;;;;;;4997811;28;20782;-88
2024/02/02 10:48:00;;;;;;;5.93;3.63;;;;;;;;;;4989773;28;20038;-91
2024/02/02 10:50:53;;;;;;;7.50;3.28;;;;;;;;;;4994501;28;20045;-88
2024/02/02 10:54:05;;;;;;;6.13;3.60;;;;;;;;;;4987557;28;20045;-90
2024/02/02 10:56:53;;;;;;;7.07;3.33;;;;;;;;;;4986000;28;20061;-86
2024/02/02 10:59:54;;;;;;;4.57;2.70;;;;;;;;;;4990179;28;20041;-88
2024/02/02 11:02:58;;;;;;;5.60;3.20;;;;;;;;;;4973256;28;20053;-91
2024/02/02 11:05:50;;;;;;;3.50;2.38;;;;;;;;;;4971867;28;20030;-88
2024/02/02 11:08:38;;;;;;;3.80;2.85;;;;;;;;;;4990250;28;20033;-90
2024/02/02 11:11:27;;;;;;;7.55;2.42;;;;;;;;;;4996108;28;20034;-90
2024/02/02 11:14:37;;;;;;;3.83;2.45;;;;;;;;;;4983391;28;20054;-79
2024/02/02 11:17:26;;;;;;;3.10;2.20;;;;;;;;;;4993273;28;20048;-82
2024/02/02 11:20:21;;;;;;;3.22;2.42;;;;;;;;;;4989318;28;20112;-82
2024/02/02 11:23:17;;;;;;;3.97;2.70;;;;;;;;;;4977835;28;20030;-81
2024/02/02 11:26:03;;;;;;;3.35;2.20;;;;;;;;;;4980958;28;20073;-79
2024/02/02 11:29:07;;;;;;;2.58;1.80;;;;;;;;;;4986222;28;20030;-77
2024/02/02 11:31:59;;;;;;;4.75;3.40;;;;;;;;;;4988729;28;20060;-77
2024/02/02 11:34:49;;;;;;;6.22;2.00;;;;;;;;;;4994758;28;20034;-78
2024/02/02 11:37:44;;;;;;;2.50;1.88;;;;;;;;;;4989782;28;20029;-81
2024/02/02 11:40:30;;;;;;;2.83;2.30;;;;;;;;;;4982351;28;20058;-81
2024/02/02 11:43:15;;;;;;;4.18;2.10;;;;;;;;;;4973897;28;20027;-80
2024/02/02 11:46:01;;;;;;;4.80;2.08;;;;;;;;;;4993055;28;20109;-79
2024/02/02 11:48:48;;;;;;;5.78;2.25;;;;;;;;;;4976844;28;20080;-80
2024/02/02 11:51:38;;;;;;;2.78;1.90;;;;;;;;;;4989286;28;20034;-80
2024/02/02 11:54:36;;;;;;;3.38;1.73;;;;;;;;;;4988068;28;20034;-80
2024/02/02 11:57:24;;;;;;;3.47;2.00;;;;;;;;;;4984587;28;20030;-81
2024/02/02 12:00:16;;;;;;;3.47;1.92;;;;;;;;;;4982990;28;20086;-81
2024/02/02 12:03:05;;;;;;;2.42;1.50;;;;;;;;;;4982973;28;20097;-82
2024/02/02 12:05:59;;;;;;;2.13;1.33;;;;;;;;;;4984927;28;20498;-80
2024/02/02 12:09:03;;;;;;;3.88;1.65;;;;;;;;;;4986269;28;20308;-84
2024/02/02 12:11:51;;;;;;;3.88;1.77;;;;;;;;;;4987110;28;20076;-86
2024/02/02 12:14:41;;;;;;;2.85;1.80;;;;;;;;;;4975289;28;20322;-83
2024/02/02 12:17:27;;;;;;;3.72;1.80;;;;;;;;;;4957320;28;20034;-86
2024/02/02 12:20:17;;;;;;;1.52;1.40;;;;;;;;;;4958416;28;20030;-86
2024/02/02 12:23:02;;;;;;;2.45;1.20;;;;;;;;;;4956141;28;20084;-87
2024/02/02 12:26:00;;;;;;;3.85;1.60;;;;;;;;;;4960271;28;20026;-91
2024/02/02 12:29:08;;;;;;;1.90;1.60;;;;;;;;;;4953651;28;20429;-87
2024/02/02 12:31:54;;;;;;;4.15;1.42;;;;;;;;;;4953631;28;20081;-85
2024/02/02 12:34:42;;;;;;;2.45;1.60;;;;;;;;;;4956596;28;20109;-88
2024/02/02 12:37:27;;;;;;;2.92;1.50;;;;;;;;;;4973621;28;20046;-85
2024/02/02 12:40:12;;;;;;;2.58;1.50;;;;;;;;;;4968333;28;20028;-87
2024/02/02 12:43:10;;;;;;;2.75;1.15;;;;;;;;;;4953109;28;20042;-87
2024/02/02 12:46:15;;;;;;;3.17;1.30;;;;;;;;;;4959435;28;20078;-87
2024/02/02 12:49:03;;;;;;;4.90;1.63;;;;;;;;;;4948860;28;20109;-86
2024/02/02 12:51:56;;;;;;;4.38;1.70;;;;;;;;;;4950621;28;20023;-86
2024/02/02 12:54:41;;;;;;;2.08;1.17;;;;;;;;;;4953577;28;20027;-84
2024/02/02 12:57:27;;;;;;;5.25;1.50;;;;;;;;;;4954684;28;20125;-87
2024/02/02 13:00:15;;;;;;;1.20;1.10;;;;;;;;;;4936075;28;20068;-83
2024/02/02 13:03:03;;;;;;;2.83;1.52;;;;;;;;;;4950663;28;20057;-87
2024/02/02 13:05:50;;;;;;;2.72;1.42;;;;;;;;;;4950626;28;20031;-83
2024/02/02 13:08:37;;;;;;;1.73;1.08;;;;;;;;;;4956824;28;20113;-83
2024/02/02 13:11:26;;;;;;;3.95;1.40;;;;;;;;;;4958830;28;20030;-84
2024/02/02 13:14:11;;;;;;;1.98;1.40;;;;;;;;;;4976818;28;20084;-84
2024/02/02 13:17:12;;;;;;;4.00;1.30;;;;;;;;;;4969966;28;20481;-83
2024/02/02 13:20:01;;;;;;;2.28;1.17;;;;;;;;;;4975071;28;20081;-83
2024/02/02 13:22:50;;;;;;;4.32;1.45;;;;;;;;;;4986742;28;20105;-83
2024/02/02 13:25:38;;;;;;;1.85;1.23;;;;;;;;;;4993960;28;20048;-87
2024/02/02 13:28:38;;;;;;;1.50;1.10;;;;;;;;;;4970200;28;20058;-86
2024/02/02 13:31:25;;;;;;;1.30;1.13;;;;;;;;;;4996657;28;20081;-85
2024/02/02 13:34:14;;;;;;;2.00;1.30;;;;;;;;;;4975832;28;20074;-85
2024/02/02 13:36:59;;;;;;;2.37;1.47;;;;;;;;;;4983616;28;20038;-86
2024/02/02 13:39:45;;;;;;;1.48;1.35;;;;;;;;;;4985313;28;20037;-84
2024/02/02 13:42:35;;;;;;;2.20;1.10;;;;;;;;;;4982751;28;20025;-84
2024/02/02 13:45:20;;;;;;;1.90;1.40;;;;;;;;;;4987284;28;20185;-85
2024/02/02 13:48:11;;;;;;;4.15;1.50;;;;;;;;;;4964316;28;20050;-85
2024/02/02 13:51:00;;;;;;;1.73;1.10;;;;;;;;;;4981496;28;20109;-84
2024/02/02 13:53:48;;;;;;;1.65;1.17;;;;;;;;;;4983657;28;20030;-84
2024/02/02 13:56:34;;;;;;;1.98;1.35;;;;;;;;;;4974750;28;20044;-86
2024/02/02 13:59:22;;;;;;;3.22;1.42;;;;;;;;;;4990609;28;20022;-85
2024/02/02 14:02:09;;;;;;;4.97;1.60;;;;;;;;;;4979365;28;20050;-85
2024/02/02 14:04:56;;;;;;;2.20;1.60;;;;;;;;;;4986097;28;20050;-83
2024/02/02 14:07:41;;;;;;;3.72;1.20;;;;;;;;;;4979626;28;20445;-84
2024/02/02 14:10:28;;;;;;;1.50;1.27;;;;;;;;;;4988282;28;20037;-85
2024/02/02 14:13:18;;;;;;;1.15;1.05;;;;;;;;;;4985626;28;20712;-82
2024/02/02 14:16:04;;;;;;;2.67;1.20;;;;;;;;;;4989096;28;20394;-85
2024/02/02 14:19:00;;;;;;;1.77;1.27;;;;;;;;;;4994304;28;20104;-81
2024/02/02 14:21:45;;;;;;;3.40;1.17;;;;;;;;;;4993356;28;20104;-84
2024/02/02 14:24:31;;;;;;;1.08;0.98;;;;;;;;;;4977384;28;20026;-83
2024/02/02 14:27:16;;;;;;;4.63;1.73;;;;;;;;;;4980985;28;20526;-84
2024/02/02 14:30:04;;;;;;;2.30;1.20;;;;;;;;;;4978293;28;20034;-84
2024/02/02 14:32:51;;;;;;;4.35;1.58;;;;;;;;;;4993713;28;20113;-83
2024/02/02 14:35:37;;;;;;;2.10;1.30;;;;;;;;;;4966439;28;20108;-86
2024/02/02 14:38:22;;;;;;;1.85;0.90;;;;;;;;;;4978534;28;20034;-83
2024/02/02 14:41:07;;;;;;;2.97;1.20;;;;;;;;;;4981874;28;20041;-83
2024/02/02 14:43:52;;;;;;;0.90;0.90;;;;;;;;;;4993664;28;20033;-84
2024/02/02 14:46:39;;;;;;;1.67;1.10;;;;;;;;;;4986131;28;20134;-83
2024/02/02 14:49:27;;;;;;;3.42;1.20;;;;;;;;;;4989948;28;20030;-84
2024/02/02 14:52:14;;;;;;;1.45;1.15;;;;;;;;;;4991882;28;20030;-90
2024/02/02 14:55:02;;;;;;;1.00;0.90;;;;;;;;;;4986975;28;20028;-89
2024/02/02 14:57:48;;;;;;;2.03;1.35;;;;;;;;;;4991391;28;20061;-88
2024/02/02 15:00:40;;;;;;;1.20;1.10;;;;;;;;;;4985060;28;20014;-88
2024/02/02 15:03:25;;;;;;;2.20;1.00;;;;;;;;;;4997145;28;20026;-89
2024/02/02 15:06:11;;;;;;;1.90;1.30;;;;;;;;;;4977259;28;20544;-89
2024/02/02 15:17:57;;;;;;;1.58;1.27;;;;;;;;;;5096080;23;20046;-80
2024/02/02 15:20:43;;;;;;;1.80;1.25;;;;;;;;;;4975094;28;20030;-82
2024/02/02 15:23:35;;;;;;;2.53;1.40;;;;;;;;;;4974010;28;20030;-84
2024/02/02 15:26:20;;;;;;;5.00;1.63;;;;;;;;;;4980918;28;20022;-87
2024/02/02 15:29:05;;;;;;;1.50;1.10;;;;;;;;;;4975434;28;20034;-82
2024/02/02 15:31:50;;;;;;;1.70;1.40;;;;;;;;;;4984249;28;20021;-84
2024/02/02 15:34:36;;;;;;;2.22;1.50;;;;;;;;;;4977969;28;20029;-86
2024/02/02 15:37:22;;;;;;;2.47;1.50;;;;;;;;;;4989267;28;20026;-83
2024/02/02 15:40:07;;;;;;;1.30;1.10;;;;;;;;;;4970481;28;20501;-83
2024/02/02 15:42:53;;;;;;;2.42;1.25;;;;;;;;;;4979915;28;20162;-81
2024/02/02 15:45:38;;;;;;;5.53;1.35;;;;;;;;;;4976743;28;20033;-88
2024/02/02 15:48:24;;;;;;;4.97;1.60;;;;;;;;;;4994699;28;20042;-89
2024/02/02 15:51:17;;;;;;;3.97;1.52;;;;;;;;;;4977798;28;20076;-89
2024/02/02 15:54:05;;;;;;;2.67;1.30;;;;;;;;;;4959094;28;20555;-85
2024/02/02 15:56:50;;;;;;;4.05;1.75;;;;;;;;;;4977322;28;20425;-87
2024/02/02 15:59:36;;;;;;;3.72;1.67;;;;;;;;;;4976014;28;20053;-87
2024/02/02 16:02:22;;;;;;;4.25;1.70;;;;;;;;;;4981959;28;20034;-87
2024/02/02 16:05:13;;;;;;;2.53;1.60;;;;;;;;;;4971452;28;20124;-87
2024/02/02 16:07:59;;;;;;;4.00;1.88;;;;;;;;;;4971418;28;20026;-88
2024/02/02 16:10:44;;;;;;;5.68;2.65;;;;;;;;;;4959571;28;20385;-86
2024/02/02 16:13:32;;;;;;;3.85;1.80;;;;;;;;;;4967934;28;20027;-87
2024/02/02 16:16:18;;;;;;;5.28;2.75;;;;;;;;;;4965285;28;20060;-89
2024/02/02 16:19:03;;;;;;;5.07;2.22;;;;;;;;;;4963730;28;20034;-87
2024/02/02 16:21:49;;;;;;;6.93;2.33;;;;;;;;;;4975673;28;20097;-85
2024/02/02 16:24:34;;;;;;;5.30;2.88;;;;;;;;;;4982572;28;20033;-85
2024/02/02 16:27:22;;;;;;;2.53;1.50;;;;;;;;;;4980778;28;20397;-85
2024/02/02 16:30:12;;;;;;;4.40;2.08;;;;;;;;;;4980632;28;20031;-84
2024/02/02 16:32:57;;;;;;;4.43;1.98;;;;;;;;;;4993049;28;20487;-85
2024/02/02 16:35:42;;;;;;;5.05;2.72;;;;;;;;;;4975751;28;20149;-84
2024/02/02 16:38:28;;;;;;;6.60;2.90;;;;;;;;;;4966708;28;20034;-86
2024/02/02 16:41:13;;;;;;;8.60;2.65;;;;;;;;;;4976993;28;20092;-84
2024/02/02 16:43:59;;;;;;;4.90;2.42;;;;;;;;;;4965406;28;20054;-84
2024/02/02 16:46:44;;;;;;;4.45;2.22;;;;;;;;;;4974228;28;20068;-85
2024/02/02 16:49:29;;;;;;;3.78;2.28;;;;;;;;;;4966607;28;20362;-83
2024/02/02 16:52:15;;;;;;;2.72;1.75;;;;;;;;;;4964082;28;20043;-83
2024/02/02 16:55:00;;;;;;;3.40;2.05;;;;;;;;;;4975736;28;20026;-83
2024/02/02 16:57:45;;;;;;;3.70;2.10;;;;;;;;;;4971239;28;20030;-83
2024/02/02 17:00:31;;;;;;;7.07;2.00;;;;;;;;;;4970623;28;20109;-84
2024/02/02 17:03:16;;;;;;;2.72;1.60;;;;;;;;;;4970893;28;20037;-85
2024/02/02 17:06:04;;;;;;;7.03;2.00;;;;;;;;;;4973236;28;20503;-84
2024/02/02 17:08:50;;;;;;;6.65;2.20;;;;;;;;;;4979791;28;20100;-85
2024/02/02 17:11:36;;;;;;;2.63;1.40;;;;;;;;;;4955686;28;20509;-84
2024/02/02 17:14:21;;;;;;;2.85;1.55;;;;;;;;;;4970578;28;20141;-84
2024/02/02 17:17:06;;;;;;;3.78;1.80;;;;;;;;;;4974652;28;20068;-84
2024/02/02 17:19:52;;;;;;;4.10;2.00;;;;;;;;;;4990060;28;20038;-85
2024/02/02 17:22:42;;;;;;;2.88;1.70;;;;;;;;;;4968116;28;20033;-84
2024/02/02 17:25:27;;;;;;;3.53;1.75;;;;;;;;;;4977457;28;20053;-84
2024/02/02 17:28:13;;;;;;;3.08;1.50;;;;;;;;;;4994814;28;20109;-88